sensor_id;sensor_type;location;lat;lon;timestamp;temperature;humidity
57466;DHT22;67033;44.984;20.068;2023-04-15T00:00:13;8.40;99.90
57466;DHT22;67033;44.984;20.068;2023-04-15T00:02:40;8.20;99.90
57466;DHT22;67033;44.984;20.068;2023-04-15T00:05:06;8.00;99.90
57466;DHT22;67033;44.984;20.068;2023-04-15T00:07:32;7.90;99.90
57466;DHT22;67033;44.984;20.068;2023-04-15T00:09:58;7.80;99.90
57466;DHT22;67033;44.984;20.068;2023-04-15T00:12:25;7.70;99.90
57466;DHT22;67033;44.984;20.068;2023-04-15T00:14:51;7.80;99.90
57466;DHT22;67033;44.984;20.068;2023-04-15T00:17:17;7.80;99.90
57466;DHT22;67033;44.984;20.068;2023-04-15T00:19:43;7.70;99.90
57466;DHT22;67033;44.984;20.068;2023-04-15T00:22:10;7.60;99.90
57466;DHT22;67033;44.984;20.068;2023-04-15T00:24:37;7.50;99.90
57466;DHT22;67033;44.984;20.068;2023-04-15T00:27:03;7.60;99.90
57466;DHT22;67033;44.984;20.068;2023-04-15T00:29:29;7.50;99.90
57466;DHT22;67033;44.984;20.068;2023-04-15T00:31:55;7.60;99.90
57466;DHT22;67033;44.984;20.068;2023-04-15T00:34:24;7.50;99.90
57466;DHT22;67033;44.984;20.068;2023-04-15T00:36:50;7.60;99.90
57466;DHT22;67033;44.984;20.068;2023-04-15T00:39:17;7.70;99.90
57466;DHT22;67033;44.984;20.068;2023-04-15T00:41:43;7.60;99.90
57466;DHT22;67033;44.984;20.068;2023-04-15T00:44:10;7.40;99.90
57466;DHT22;67033;44.984;20.068;2023-04-15T00:46:37;7.40;99.90
57466;DHT22;67033;44.984;20.068;2023-04-15T00:49:04;7.40;99.90
57466;DHT22;67033;44.984;20.068;2023-04-15T00:51:31;7.30;99.90
57466;DHT22;67033;44.984;20.068;2023-04-15T00:53:59;7.10;99.90
57466;DHT22;67033;44.984;20.068;2023-04-15T00:56:25;7.30;99.90
57466;DHT22;67033;44.984;20.068;2023-04-15T00:58:52;7.30;99.90
57466;DHT22;67033;44.984;20.068;2023-04-15T01:01:20;7.20;99.90
57466;DHT22;67033;44.984;20.068;2023-04-15T01:03:48;7.30;99.90
57466;DHT22;67033;44.984;20.068;2023-04-15T01:06:15;7.20;99.90
57466;DHT22;67033;44.984;20.068;2023-04-15T01:08:42;7.10;99.90
57466;DHT22;67033;44.984;20.068;2023-04-15T01:11:08;7.30;99.90
57466;DHT22;67033;44.984;20.068;2023-04-15T01:13:35;7.60;99.90
57466;DHT22;67033;44.984;20.068;2023-04-15T01:16:01;7.70;99.90
57466;DHT22;67033;44.984;20.068;2023-04-15T01:18:28;7.80;99.90
57466;DHT22;67033;44.984;20.068;2023-04-15T01:20:54;7.70;99.90
57466;DHT22;67033;44.984;20.068;2023-04-15T01:23:21;7.50;99.90
57466;DHT22;67033;44.984;20.068;2023-04-15T01:25:50;7.50;99.90
57466;DHT22;67033;44.984;20.068;2023-04-15T01:28:17;7.60;99.90
57466;DHT22;67033;44.984;20.068;2023-04-15T01:30:44;7.50;99.90
57466;DHT22;67033;44.984;20.068;2023-04-15T01:33:10;7.50;99.90
57466;DHT22;67033;44.984;20.068;2023-04-15T01:35:36;7.50;99.90
57466;DHT22;67033;44.984;20.068;2023-04-15T01:38:05;7.40;99.90
57466;DHT22;67033;44.984;20.068;2023-04-15T01:40:32;7.40;99.90
57466;DHT22;67033;44.984;20.068;2023-04-15T01:42:59;7.50;99.90
57466;DHT22;67033;44.984;20.068;2023-04-15T01:45:25;7.60;99.90
57466;DHT22;67033;44.984;20.068;2023-04-15T01:47:50;7.60;99.90
57466;DHT22;67033;44.984;20.068;2023-04-15T01:50:17;7.50;99.90
57466;DHT22;67033;44.984;20.068;2023-04-15T01:52:43;7.50;99.90
57466;DHT22;67033;44.984;20.068;2023-04-15T01:55:10;7.60;99.90
57466;DHT22;67033;44.984;20.068;2023-04-15T01:57:36;7.80;99.90
57466;DHT22;67033;44.984;20.068;2023-04-15T02:00:02;7.70;99.90
57466;DHT22;67033;44.984;20.068;2023-04-15T02:02:28;7.60;99.90
57466;DHT22;67033;44.984;20.068;2023-04-15T02:04:54;7.50;99.90
57466;DHT22;67033;44.984;20.068;2023-04-15T02:07:20;7.40;99.90
57466;DHT22;67033;44.984;20.068;2023-04-15T02:09:46;7.40;99.90
57466;DHT22;67033;44.984;20.068;2023-04-15T02:12:12;7.40;99.90
57466;DHT22;67033;44.984;20.068;2023-04-15T02:14:38;7.50;99.90
57466;DHT22;67033;44.984;20.068;2023-04-15T02:17:04;7.60;99.90
57466;DHT22;67033;44.984;20.068;2023-04-15T02:19:33;7.40;99.90
57466;DHT22;67033;44.984;20.068;2023-04-15T02:21:59;7.20;99.90
57466;DHT22;67033;44.984;20.068;2023-04-15T02:24:27;7.10;99.90
57466;DHT22;67033;44.984;20.068;2023-04-15T02:26:53;7.10;99.90
57466;DHT22;67033;44.984;20.068;2023-04-15T02:29:19;7.10;99.90
57466;DHT22;67033;44.984;20.068;2023-04-15T02:31:45;7.20;99.90
57466;DHT22;67033;44.984;20.068;2023-04-15T02:34:12;7.40;99.90
57466;DHT22;67033;44.984;20.068;2023-04-15T02:36:38;7.40;99.90
57466;DHT22;67033;44.984;20.068;2023-04-15T02:39:05;7.40;99.90
57466;DHT22;67033;44.984;20.068;2023-04-15T02:41:31;7.50;99.90
57466;DHT22;67033;44.984;20.068;2023-04-15T02:43:57;7.50;99.90
57466;DHT22;67033;44.984;20.068;2023-04-15T02:46:23;7.50;99.90
57466;DHT22;67033;44.984;20.068;2023-04-15T02:48:49;7.70;99.90
57466;DHT22;67033;44.984;20.068;2023-04-15T02:51:17;7.80;99.90
57466;DHT22;67033;44.984;20.068;2023-04-15T02:53:48;7.90;99.90
57466;DHT22;67033;44.984;20.068;2023-04-15T02:56:14;8.00;99.90
57466;DHT22;67033;44.984;20.068;2023-04-15T02:58:42;8.00;99.90
57466;DHT22;67033;44.984;20.068;2023-04-15T03:01:15;7.80;99.90
57466;DHT22;67033;44.984;20.068;2023-04-15T03:03:50;7.50;99.90
57466;DHT22;67033;44.984;20.068;2023-04-15T03:06:16;7.50;99.90
57466;DHT22;67033;44.984;20.068;2023-04-15T03:08:42;7.50;99.90
57466;DHT22;67033;44.984;20.068;2023-04-15T03:11:08;7.40;99.90
57466;DHT22;67033;44.984;20.068;2023-04-15T03:13:34;7.40;99.90
57466;DHT22;67033;44.984;20.068;2023-04-15T03:16:00;7.50;99.90
57466;DHT22;67033;44.984;20.068;2023-04-15T03:18:25;7.60;99.90
57466;DHT22;67033;44.984;20.068;2023-04-15T03:20:52;7.70;99.90
57466;DHT22;67033;44.984;20.068;2023-04-15T03:23:18;7.70;99.90
57466;DHT22;67033;44.984;20.068;2023-04-15T03:25:44;7.90;99.90
57466;DHT22;67033;44.984;20.068;2023-04-15T03:28:11;7.90;99.90
57466;DHT22;67033;44.984;20.068;2023-04-15T03:30:37;7.80;99.90
57466;DHT22;67033;44.984;20.068;2023-04-15T03:33:02;7.80;99.90
57466;DHT22;67033;44.984;20.068;2023-04-15T03:35:28;7.70;99.90
57466;DHT22;67033;44.984;20.068;2023-04-15T03:37:55;7.70;99.90
57466;DHT22;67033;44.984;20.068;2023-04-15T03:40:21;7.60;99.90
57466;DHT22;67033;44.984;20.068;2023-04-15T03:42:47;7.60;99.90
57466;DHT22;67033;44.984;20.068;2023-04-15T03:45:12;7.70;99.90
57466;DHT22;67033;44.984;20.068;2023-04-15T03:47:38;7.70;99.90
57466;DHT22;67033;44.984;20.068;2023-04-15T03:50:05;7.50;99.90
57466;DHT22;67033;44.984;20.068;2023-04-15T03:52:31;7.50;99.90
57466;DHT22;67033;44.984;20.068;2023-04-15T03:54:57;7.50;99.90
57466;DHT22;67033;44.984;20.068;2023-04-15T03:57:23;7.50;99.90
57466;DHT22;67033;44.984;20.068;2023-04-15T03:59:49;7.40;99.90
57466;DHT22;67033;44.984;20.068;2023-04-15T04:02:14;7.30;99.90
57466;DHT22;67033;44.984;20.068;2023-04-15T04:04:40;7.10;99.90
57466;DHT22;67033;44.984;20.068;2023-04-15T04:07:06;7.10;99.90
57466;DHT22;67033;44.984;20.068;2023-04-15T04:09:32;6.90;99.90
57466;DHT22;67033;44.984;20.068;2023-04-15T04:11:58;6.90;99.90
57466;DHT22;67033;44.984;20.068;2023-04-15T04:14:25;6.90;99.90
57466;DHT22;67033;44.984;20.068;2023-04-15T04:16:54;6.90;99.90
57466;DHT22;67033;44.984;20.068;2023-04-15T04:19:21;7.00;99.90
57466;DHT22;67033;44.984;20.068;2023-04-15T04:21:55;6.90;99.90
57466;DHT22;67033;44.984;20.068;2023-04-15T04:24:21;6.90;99.90
57466;DHT22;67033;44.984;20.068;2023-04-15T04:26:47;6.90;99.90
57466;DHT22;67033;44.984;20.068;2023-04-15T04:29:13;6.90;99.90
57466;DHT22;67033;44.984;20.068;2023-04-15T04:31:38;7.00;99.90
57466;DHT22;67033;44.984;20.068;2023-04-15T04:34:04;7.20;99.90
57466;DHT22;67033;44.984;20.068;2023-04-15T04:36:30;7.20;99.90
57466;DHT22;67033;44.984;20.068;2023-04-15T04:38:56;7.30;99.90
57466;DHT22;67033;44.984;20.068;2023-04-15T04:41:22;7.40;99.90
57466;DHT22;67033;44.984;20.068;2023-04-15T04:43:48;7.60;99.90
57466;DHT22;67033;44.984;20.068;2023-04-15T04:46:14;7.70;99.90
57466;DHT22;67033;44.984;20.068;2023-04-15T04:48:40;7.70;99.90
57466;DHT22;67033;44.984;20.068;2023-04-15T04:51:06;7.70;99.90
57466;DHT22;67033;44.984;20.068;2023-04-15T04:53:32;7.80;99.90
57466;DHT22;67033;44.984;20.068;2023-04-15T04:55:58;7.90;99.90
57466;DHT22;67033;44.984;20.068;2023-04-15T04:58:24;7.90;99.90
57466;DHT22;67033;44.984;20.068;2023-04-15T05:00:50;8.10;99.90
57466;DHT22;67033;44.984;20.068;2023-04-15T05:03:16;8.10;99.90
57466;DHT22;67033;44.984;20.068;2023-04-15T05:05:42;8.10;99.90
57466;DHT22;67033;44.984;20.068;2023-04-15T05:08:08;8.10;99.90
57466;DHT22;67033;44.984;20.068;2023-04-15T05:10:34;8.20;99.90
57466;DHT22;67033;44.984;20.068;2023-04-15T05:13:00;8.20;99.90
57466;DHT22;67033;44.984;20.068;2023-04-15T05:15:26;8.20;99.90
57466;DHT22;67033;44.984;20.068;2023-04-15T05:17:52;8.10;99.90
57466;DHT22;67033;44.984;20.068;2023-04-15T05:20:18;8.20;99.90
57466;DHT22;67033;44.984;20.068;2023-04-15T05:22:44;8.40;99.90
57466;DHT22;67033;44.984;20.068;2023-04-15T05:25:10;8.50;99.90
57466;DHT22;67033;44.984;20.068;2023-04-15T05:27:36;8.60;99.90
57466;DHT22;67033;44.984;20.068;2023-04-15T05:30:02;8.70;99.90
57466;DHT22;67033;44.984;20.068;2023-04-15T05:32:28;8.80;99.90
57466;DHT22;67033;44.984;20.068;2023-04-15T05:34:54;8.80;99.90
57466;DHT22;67033;44.984;20.068;2023-04-15T05:37:20;8.80;99.90
57466;DHT22;67033;44.984;20.068;2023-04-15T05:39:46;8.90;99.90
57466;DHT22;67033;44.984;20.068;2023-04-15T05:42:13;8.90;99.90
57466;DHT22;67033;44.984;20.068;2023-04-15T05:44:39;8.90;99.90
57466;DHT22;67033;44.984;20.068;2023-04-15T05:47:05;9.00;99.90
57466;DHT22;67033;44.984;20.068;2023-04-15T05:49:31;9.10;99.90
57466;DHT22;67033;44.984;20.068;2023-04-15T05:51:57;9.20;99.90
57466;DHT22;67033;44.984;20.068;2023-04-15T05:56:51;9.20;99.90
57466;DHT22;67033;44.984;20.068;2023-04-15T05:59:16;9.60;99.90
57466;DHT22;67033;44.984;20.068;2023-04-15T06:01:42;10.50;99.90
57466;DHT22;67033;44.984;20.068;2023-04-15T06:04:08;11.20;99.90
57466;DHT22;67033;44.984;20.068;2023-04-15T06:06:34;12.10;99.90
57466;DHT22;67033;44.984;20.068;2023-04-15T06:09:00;12.70;99.90
57466;DHT22;67033;44.984;20.068;2023-04-15T06:11:25;13.60;99.90
57466;DHT22;67033;44.984;20.068;2023-04-15T06:13:51;13.90;99.90
57466;DHT22;67033;44.984;20.068;2023-04-15T06:16:17;14.40;99.90
57466;DHT22;67033;44.984;20.068;2023-04-15T06:18:43;14.80;99.90
57466;DHT22;67033;44.984;20.068;2023-04-15T06:21:09;15.30;98.50
57466;DHT22;67033;44.984;20.068;2023-04-15T06:23:36;15.50;99.90
57466;DHT22;67033;44.984;20.068;2023-04-15T06:26:02;15.30;95.60
57466;DHT22;67033;44.984;20.068;2023-04-15T06:28:28;15.50;98.10
57466;DHT22;67033;44.984;20.068;2023-04-15T06:30:54;15.30;95.10
57466;DHT22;67033;44.984;20.068;2023-04-15T06:33:20;15.20;97.20
57466;DHT22;67033;44.984;20.068;2023-04-15T06:35:46;15.30;97.50
57466;DHT22;67033;44.984;20.068;2023-04-15T06:38:14;15.50;96.10
57466;DHT22;67033;44.984;20.068;2023-04-15T06:40:40;15.10;95.60
57466;DHT22;67033;44.984;20.068;2023-04-15T06:43:07;14.70;96.50
57466;DHT22;67033;44.984;20.068;2023-04-15T06:45:33;14.40;97.40
57466;DHT22;67033;44.984;20.068;2023-04-15T06:47:59;14.50;97.60
57466;DHT22;67033;44.984;20.068;2023-04-15T07:00:14;15.80;92.30
57466;DHT22;67033;44.984;20.068;2023-04-15T07:02:40;16.00;93.50
57466;DHT22;67033;44.984;20.068;2023-04-15T07:05:06;15.70;94.90
57466;DHT22;67033;44.984;20.068;2023-04-15T07:07:32;15.70;94.60
57466;DHT22;67033;44.984;20.068;2023-04-15T07:09:58;15.70;95.90
57466;DHT22;67033;44.984;20.068;2023-04-15T07:12:25;15.50;93.70
57466;DHT22;67033;44.984;20.068;2023-04-15T07:14:51;15.70;95.70
57466;DHT22;67033;44.984;20.068;2023-04-15T07:17:16;15.80;94.80
57466;DHT22;67033;44.984;20.068;2023-04-15T07:19:42;15.60;96.50
57466;DHT22;67033;44.984;20.068;2023-04-15T07:34:21;15.80;95.40
57466;DHT22;67033;44.984;20.068;2023-04-15T07:39:19;17.30;89.00
57466;DHT22;67033;44.984;20.068;2023-04-15T07:41:44;17.70;86.60
57466;DHT22;67033;44.984;20.068;2023-04-15T07:44:11;17.40;87.40
57466;DHT22;67033;44.984;20.068;2023-04-15T07:46:37;17.60;86.80
57466;DHT22;67033;44.984;20.068;2023-04-15T07:49:03;17.40;87.70
57466;DHT22;67033;44.984;20.068;2023-04-15T07:51:29;17.60;88.20
57466;DHT22;67033;44.984;20.068;2023-04-15T07:58:47;17.40;87.30
57466;DHT22;67033;44.984;20.068;2023-04-15T08:01:14;17.20;87.30
57466;DHT22;67033;44.984;20.068;2023-04-15T08:03:39;17.30;87.20
57466;DHT22;67033;44.984;20.068;2023-04-15T08:06:05;17.40;83.60
57466;DHT22;67033;44.984;20.068;2023-04-15T08:08:31;17.40;82.80
57466;DHT22;67033;44.984;20.068;2023-04-15T08:10:57;17.60;81.60
57466;DHT22;67033;44.984;20.068;2023-04-15T08:13:24;18.00;82.50
57466;DHT22;67033;44.984;20.068;2023-04-15T08:18:37;17.20;78.70
57466;DHT22;67033;44.984;20.068;2023-04-15T08:21:03;16.90;80.40
57466;DHT22;67033;44.984;20.068;2023-04-15T08:23:29;16.70;81.80
57466;DHT22;67033;44.984;20.068;2023-04-15T08:25:54;17.00;83.50
57466;DHT22;67033;44.984;20.068;2023-04-15T08:28:20;17.40;83.40
57466;DHT22;67033;44.984;20.068;2023-04-15T08:30:46;17.50;81.00
57466;DHT22;67033;44.984;20.068;2023-04-15T08:35:39;18.20;82.80
57466;DHT22;67033;44.984;20.068;2023-04-15T08:38:05;18.00;76.40
57466;DHT22;67033;44.984;20.068;2023-04-15T08:40:41;18.20;79.60
57466;DHT22;67033;44.984;20.068;2023-04-15T08:43:25;18.30;77.20
57466;DHT22;67033;44.984;20.068;2023-04-15T08:48:20;18.80;77.90
57466;DHT22;67033;44.984;20.068;2023-04-15T08:50:50;18.80;73.10
57466;DHT22;67033;44.984;20.068;2023-04-15T08:53:16;18.30;73.60
57466;DHT22;67033;44.984;20.068;2023-04-15T08:55:44;18.60;73.80
57466;DHT22;67033;44.984;20.068;2023-04-15T08:58:11;18.80;77.00
57466;DHT22;67033;44.984;20.068;2023-04-15T09:00:38;18.70;73.40
57466;DHT22;67033;44.984;20.068;2023-04-15T09:05:32;18.90;68.20
57466;DHT22;67033;44.984;20.068;2023-04-15T09:07:59;19.60;67.70
57466;DHT22;67033;44.984;20.068;2023-04-15T09:10:25;19.70;66.20
57466;DHT22;67033;44.984;20.068;2023-04-15T09:12:51;19.90;65.50
57466;DHT22;67033;44.984;20.068;2023-04-15T09:15:17;19.90;70.00
57466;DHT22;67033;44.984;20.068;2023-04-15T09:17:44;19.80;67.20
57466;DHT22;67033;44.984;20.068;2023-04-15T09:20:13;19.70;66.40
57466;DHT22;67033;44.984;20.068;2023-04-15T09:27:51;19.60;66.70
57466;DHT22;67033;44.984;20.068;2023-04-15T09:30:17;19.80;66.60
57466;DHT22;67033;44.984;20.068;2023-04-15T09:32:57;19.70;66.30
57466;DHT22;67033;44.984;20.068;2023-04-15T09:35:24;19.60;65.70
57466;DHT22;67033;44.984;20.068;2023-04-15T09:37:52;20.10;63.00
57466;DHT22;67033;44.984;20.068;2023-04-15T09:40:41;20.30;65.80
57466;DHT22;67033;44.984;20.068;2023-04-15T09:43:08;20.20;64.50
57466;DHT22;67033;44.984;20.068;2023-04-15T09:45:38;19.90;67.00
57466;DHT22;67033;44.984;20.068;2023-04-15T09:50:43;20.60;64.60
57466;DHT22;67033;44.984;20.068;2023-04-15T09:53:10;20.20;67.40
57466;DHT22;67033;44.984;20.068;2023-04-15T09:55:37;20.40;67.50
57466;DHT22;67033;44.984;20.068;2023-04-15T09:58:08;20.40;68.20
57466;DHT22;67033;44.984;20.068;2023-04-15T10:00:35;20.50;64.80
57466;DHT22;67033;44.984;20.068;2023-04-15T10:03:04;20.20;65.00
57466;DHT22;67033;44.984;20.068;2023-04-15T10:05:30;20.70;64.10
57466;DHT22;67033;44.984;20.068;2023-04-15T10:07:57;20.60;63.70
57466;DHT22;67033;44.984;20.068;2023-04-15T10:10:23;19.90;65.60
57466;DHT22;67033;44.984;20.068;2023-04-15T10:12:51;19.80;64.60
57466;DHT22;67033;44.984;20.068;2023-04-15T10:15:20;20.10;70.00
57466;DHT22;67033;44.984;20.068;2023-04-15T10:17:47;20.10;64.50
57466;DHT22;67033;44.984;20.068;2023-04-15T10:20:16;19.90;64.30
57466;DHT22;67033;44.984;20.068;2023-04-15T10:22:44;20.10;64.30
57466;DHT22;67033;44.984;20.068;2023-04-15T10:25:11;20.30;65.70
57466;DHT22;67033;44.984;20.068;2023-04-15T10:27:39;20.60;63.90
57466;DHT22;67033;44.984;20.068;2023-04-15T10:30:07;19.90;63.60
57466;DHT22;67033;44.984;20.068;2023-04-15T10:32:33;20.00;65.50
57466;DHT22;67033;44.984;20.068;2023-04-15T10:35:01;20.30;64.70
57466;DHT22;67033;44.984;20.068;2023-04-15T10:37:37;20.50;66.20
57466;DHT22;67033;44.984;20.068;2023-04-15T10:40:22;20.20;64.70
57466;DHT22;67033;44.984;20.068;2023-04-15T10:42:49;20.60;64.50
57466;DHT22;67033;44.984;20.068;2023-04-15T10:45:16;20.50;63.50
57466;DHT22;67033;44.984;20.068;2023-04-15T10:47:43;20.50;63.20
57466;DHT22;67033;44.984;20.068;2023-04-15T10:50:09;20.50;64.50
57466;DHT22;67033;44.984;20.068;2023-04-15T10:52:39;20.80;64.10
57466;DHT22;67033;44.984;20.068;2023-04-15T10:55:20;20.50;65.20
57466;DHT22;67033;44.984;20.068;2023-04-15T10:57:51;20.20;62.70
57466;DHT22;67033;44.984;20.068;2023-04-15T11:00:18;20.30;63.40
57466;DHT22;67033;44.984;20.068;2023-04-15T11:02:58;20.10;66.30
57466;DHT22;67033;44.984;20.068;2023-04-15T11:08:04;20.90;66.80
57466;DHT22;67033;44.984;20.068;2023-04-15T11:13:03;20.50;63.30
57466;DHT22;67033;44.984;20.068;2023-04-15T11:15:35;20.20;65.20
57466;DHT22;67033;44.984;20.068;2023-04-15T11:20:37;19.70;66.20
57466;DHT22;67033;44.984;20.068;2023-04-15T11:23:04;19.90;65.90
57466;DHT22;67033;44.984;20.068;2023-04-15T11:25:34;20.00;65.90
57466;DHT22;67033;44.984;20.068;2023-04-15T11:28:03;20.30;64.40
57466;DHT22;67033;44.984;20.068;2023-04-15T11:30:36;20.40;62.50
57466;DHT22;67033;44.984;20.068;2023-04-15T11:33:04;20.00;65.60
57466;DHT22;67033;44.984;20.068;2023-04-15T11:35:30;19.90;63.60
57466;DHT22;67033;44.984;20.068;2023-04-15T11:37:57;19.60;62.60
57466;DHT22;67033;44.984;20.068;2023-04-15T11:40:28;19.40;62.70
57466;DHT22;67033;44.984;20.068;2023-04-15T11:45:54;18.90;66.10
57466;DHT22;67033;44.984;20.068;2023-04-15T11:48:28;19.00;66.60
57466;DHT22;67033;44.984;20.068;2023-04-15T11:50:59;19.10;67.90
57466;DHT22;67033;44.984;20.068;2023-04-15T11:53:40;19.00;66.80
57466;DHT22;67033;44.984;20.068;2023-04-15T11:56:10;19.20;69.10
57466;DHT22;67033;44.984;20.068;2023-04-15T11:58:36;19.50;66.00
57466;DHT22;67033;44.984;20.068;2023-04-15T12:01:03;19.50;64.90
57466;DHT22;67033;44.984;20.068;2023-04-15T12:03:40;19.70;63.70
57466;DHT22;67033;44.984;20.068;2023-04-15T12:06:18;20.00;65.80
57466;DHT22;67033;44.984;20.068;2023-04-15T12:14:09;20.10;64.10
57466;DHT22;67033;44.984;20.068;2023-04-15T12:16:44;20.10;64.70
57466;DHT22;67033;44.984;20.068;2023-04-15T12:19:12;20.00;62.20
57466;DHT22;67033;44.984;20.068;2023-04-15T12:21:42;20.10;64.10
57466;DHT22;67033;44.984;20.068;2023-04-15T12:24:09;20.20;62.10
57466;DHT22;67033;44.984;20.068;2023-04-15T12:26:44;20.50;62.90
57466;DHT22;67033;44.984;20.068;2023-04-15T12:29:12;20.40;62.60
57466;DHT22;67033;44.984;20.068;2023-04-15T12:32:09;20.40;60.80
57466;DHT22;67033;44.984;20.068;2023-04-15T12:34:39;19.90;62.60
57466;DHT22;67033;44.984;20.068;2023-04-15T12:37:07;19.70;62.70
57466;DHT22;67033;44.984;20.068;2023-04-15T12:39:38;20.00;64.50
57466;DHT22;67033;44.984;20.068;2023-04-15T12:42:05;20.30;63.90
57466;DHT22;67033;44.984;20.068;2023-04-15T12:47:00;20.80;63.20
57466;DHT22;67033;44.984;20.068;2023-04-15T12:49:27;20.90;63.90
57466;DHT22;67033;44.984;20.068;2023-04-15T12:51:56;21.20;62.70
57466;DHT22;67033;44.984;20.068;2023-04-15T12:54:22;21.10;59.60
57466;DHT22;67033;44.984;20.068;2023-04-15T12:56:49;20.80;61.10
57466;DHT22;67033;44.984;20.068;2023-04-15T12:59:16;20.90;60.90
57466;DHT22;67033;44.984;20.068;2023-04-15T13:01:47;21.00;61.50
57466;DHT22;67033;44.984;20.068;2023-04-15T13:04:13;20.80;61.30
57466;DHT22;67033;44.984;20.068;2023-04-15T13:06:40;20.70;60.90
57466;DHT22;67033;44.984;20.068;2023-04-15T13:09:05;20.60;61.60
57466;DHT22;67033;44.984;20.068;2023-04-15T13:11:32;20.70;63.60
57466;DHT22;67033;44.984;20.068;2023-04-15T13:14:01;20.80;61.10
57466;DHT22;67033;44.984;20.068;2023-04-15T13:16:27;20.50;60.90
57466;DHT22;67033;44.984;20.068;2023-04-15T13:18:53;20.80;61.50
57466;DHT22;67033;44.984;20.068;2023-04-15T13:21:19;20.60;62.10
57466;DHT22;67033;44.984;20.068;2023-04-15T13:23:45;20.80;64.20
57466;DHT22;67033;44.984;20.068;2023-04-15T13:26:11;20.70;61.50
57466;DHT22;67033;44.984;20.068;2023-04-15T13:28:37;20.80;61.80
57466;DHT22;67033;44.984;20.068;2023-04-15T13:31:04;20.50;59.80
57466;DHT22;67033;44.984;20.068;2023-04-15T13:33:30;20.20;61.60
57466;DHT22;67033;44.984;20.068;2023-04-15T13:35:56;20.00;62.70
57466;DHT22;67033;44.984;20.068;2023-04-15T13:38:23;19.70;62.70
57466;DHT22;67033;44.984;20.068;2023-04-15T13:40:50;20.10;62.40
57466;DHT22;67033;44.984;20.068;2023-04-15T13:43:16;20.30;62.30
57466;DHT22;67033;44.984;20.068;2023-04-15T13:45:42;20.40;59.90
57466;DHT22;67033;44.984;20.068;2023-04-15T13:48:08;20.30;60.50
57466;DHT22;67033;44.984;20.068;2023-04-15T13:50:34;20.10;62.10
57466;DHT22;67033;44.984;20.068;2023-04-15T13:53:00;19.90;69.60
57466;DHT22;67033;44.984;20.068;2023-04-15T13:55:26;19.80;63.20
57466;DHT22;67033;44.984;20.068;2023-04-15T13:57:52;19.80;61.20
57466;DHT22;67033;44.984;20.068;2023-04-15T14:00:18;19.70;63.90
57466;DHT22;67033;44.984;20.068;2023-04-15T14:02:44;19.70;86.70
57466;DHT22;67033;44.984;20.068;2023-04-15T14:05:10;19.50;59.90
57466;DHT22;67033;44.984;20.068;2023-04-15T14:07:36;19.30;62.10
57466;DHT22;67033;44.984;20.068;2023-04-15T14:10:03;19.20;63.10
57466;DHT22;67033;44.984;20.068;2023-04-15T14:12:29;19.20;63.90
57466;DHT22;67033;44.984;20.068;2023-04-15T14:14:55;19.10;64.00
57466;DHT22;67033;44.984;20.068;2023-04-15T14:17:21;19.10;63.50
57466;DHT22;67033;44.984;20.068;2023-04-15T14:19:47;19.00;63.70
57466;DHT22;67033;44.984;20.068;2023-04-15T14:22:13;18.80;81.30
57466;DHT22;67033;44.984;20.068;2023-04-15T14:24:39;18.70;66.90
57466;DHT22;67033;44.984;20.068;2023-04-15T14:27:05;18.60;66.60
57466;DHT22;67033;44.984;20.068;2023-04-15T14:29:33;18.50;66.90
57466;DHT22;67033;44.984;20.068;2023-04-15T14:31:59;18.40;65.60
57466;DHT22;67033;44.984;20.068;2023-04-15T14:34:25;18.30;64.90
57466;DHT22;67033;44.984;20.068;2023-04-15T14:36:51;18.20;66.10
57466;DHT22;67033;44.984;20.068;2023-04-15T14:39:19;18.00;69.30
57466;DHT22;67033;44.984;20.068;2023-04-15T14:44:12;17.30;92.10
57466;DHT22;67033;44.984;20.068;2023-04-15T14:49:05;16.20;78.80
57466;DHT22;67033;44.984;20.068;2023-04-15T14:51:32;15.20;90.60
57466;DHT22;67033;44.984;20.068;2023-04-15T14:56:25;14.10;99.90
57466;DHT22;67033;44.984;20.068;2023-04-15T14:58:52;14.20;99.90
57466;DHT22;67033;44.984;20.068;2023-04-15T15:03:45;14.10;99.90
57466;DHT22;67033;44.984;20.068;2023-04-15T15:11:03;13.90;99.90
57466;DHT22;67033;44.984;20.068;2023-04-15T15:13:29;13.50;99.90
57466;DHT22;67033;44.984;20.068;2023-04-15T15:15:56;13.50;99.90
57466;DHT22;67033;44.984;20.068;2023-04-15T15:18:22;13.70;99.90
57466;DHT22;67033;44.984;20.068;2023-04-15T15:20:50;13.70;99.90
57466;DHT22;67033;44.984;20.068;2023-04-15T15:23:16;13.70;99.90
57466;DHT22;67033;44.984;20.068;2023-04-15T15:25:42;13.70;99.90
57466;DHT22;67033;44.984;20.068;2023-04-15T15:28:08;13.90;99.90
57466;DHT22;67033;44.984;20.068;2023-04-15T15:30:34;14.10;99.90
57466;DHT22;67033;44.984;20.068;2023-04-15T15:32:59;14.10;99.90
57466;DHT22;67033;44.984;20.068;2023-04-15T15:35:25;14.30;99.90
57466;DHT22;67033;44.984;20.068;2023-04-15T15:37:52;14.50;99.90
57466;DHT22;67033;44.984;20.068;2023-04-15T15:40:19;14.60;99.90
57466;DHT22;67033;44.984;20.068;2023-04-15T15:42:45;14.60;99.90
57466;DHT22;67033;44.984;20.068;2023-04-15T15:45:14;14.60;99.90
57466;DHT22;67033;44.984;20.068;2023-04-15T15:47:40;14.70;99.90
57466;DHT22;67033;44.984;20.068;2023-04-15T15:50:06;14.50;99.90
57466;DHT22;67033;44.984;20.068;2023-04-15T15:52:32;14.30;99.90
57466;DHT22;67033;44.984;20.068;2023-04-15T15:54:58;14.40;99.90
57466;DHT22;67033;44.984;20.068;2023-04-15T15:57:24;14.40;99.90
57466;DHT22;67033;44.984;20.068;2023-04-15T15:59:50;14.40;99.90
57466;DHT22;67033;44.984;20.068;2023-04-15T16:02:16;14.40;99.90
57466;DHT22;67033;44.984;20.068;2023-04-15T16:04:41;14.30;99.90
57466;DHT22;67033;44.984;20.068;2023-04-15T16:07:09;14.20;99.90
57466;DHT22;67033;44.984;20.068;2023-04-15T16:09:35;14.00;99.90
57466;DHT22;67033;44.984;20.068;2023-04-15T16:12:01;14.00;99.90
57466;DHT22;67033;44.984;20.068;2023-04-15T16:14:28;14.10;99.90
57466;DHT22;67033;44.984;20.068;2023-04-15T16:16:54;14.10;99.90
57466;DHT22;67033;44.984;20.068;2023-04-15T16:19:20;14.00;99.90
57466;DHT22;67033;44.984;20.068;2023-04-15T16:21:46;14.00;99.90
57466;DHT22;67033;44.984;20.068;2023-04-15T16:24:12;14.00;99.90
57466;DHT22;67033;44.984;20.068;2023-04-15T16:26:40;14.00;99.90
57466;DHT22;67033;44.984;20.068;2023-04-15T16:29:06;14.00;99.90
57466;DHT22;67033;44.984;20.068;2023-04-15T16:31:32;14.10;99.90
57466;DHT22;67033;44.984;20.068;2023-04-15T16:33:59;14.20;99.90
57466;DHT22;67033;44.984;20.068;2023-04-15T16:36:25;14.10;99.90
57466;DHT22;67033;44.984;20.068;2023-04-15T16:38:51;14.00;99.90
57466;DHT22;67033;44.984;20.068;2023-04-15T16:41:16;14.00;99.90
57466;DHT22;67033;44.984;20.068;2023-04-15T16:43:43;14.10;99.90